»·PEaware :: QXE2529 KBLI-KSEA

QXE2529 :: KBLI-KSEA

FLIGHT INFORMATION

Flight Status: Arrived
Operator:
Horizon Air
More flights by this operator :: More flights under this callsign
Pilot: Adlai G. (28854)
Aircraft: DEHAVILLAND DASH 8 400
(DH8D)
More flights by this aircraft type
Origin: KBLI Bellingham Intl
United States
Destination: KSEA Seattle-Tacoma Intl
United States
More flights between these airports :: More routes between these airports
Route: KIENO6 CVV JAWBN JAWBN6
File this flight plan on PilotEdge
Remarks:
Altitude:
(Current/Filed)
13,000ft
Speed:
(Current/Filed)
342kts
Departed: 21-Feb-21 10:12 AM
Arrived: 21-Feb-21 10:37 AM
Distance/Time
Traveled:
81nm/0:25
Distance/Time
To Go:
Arrived

Flight Plot

Page will automatically refresh every two minutes.

Flight plan parsing failed; only flown route is shown


Map Options




Map Legend


Flown Route
Filed Route
Departure Airport
Arrival Airport
Navaid (VOR, NDB)
Fix

Horizontal Profiles

Position Reports

Time Latitude Longitude Heading Altitude Ground
Speed
21-Feb-21 09:41 48.795472 -122.534374 129 177ft 0kts
21-Feb-21 09:42 48.795472 -122.534374 129 177ft 0kts
21-Feb-21 09:43 48.795472 -122.534374 129 177ft 0kts
21-Feb-21 09:44 48.795472 -122.534374 129 177ft 0kts
21-Feb-21 09:45 48.795472 -122.534374 129 177ft 0kts
21-Feb-21 09:46 48.795472 -122.534374 129 177ft 0kts
21-Feb-21 09:47 48.795472 -122.534374 129 177ft 0kts
21-Feb-21 09:48 48.795472 -122.534374 129 177ft 0kts
21-Feb-21 09:49 48.795472 -122.534374 129 177ft 0kts
21-Feb-21 09:50 48.795472 -122.534374 129 177ft 0kts
21-Feb-21 09:51 48.795472 -122.534374 129 177ft 0kts
21-Feb-21 09:52 48.795472 -122.534374 129 177ft 0kts
21-Feb-21 09:53 48.795472 -122.534374 129 177ft 0kts
21-Feb-21 09:54 48.795472 -122.534374 129 177ft 0kts
21-Feb-21 09:55 48.795472 -122.534374 129 177ft 0kts
21-Feb-21 09:56 48.795472 -122.534374 129 177ft 0kts
21-Feb-21 09:57 48.795472 -122.534374 129 177ft 0kts
21-Feb-21 09:58 48.795472 -122.534374 129 177ft 0kts
21-Feb-21 09:59 48.795472 -122.534374 129 177ft 0kts
21-Feb-21 10:00 48.795472 -122.534374 129 177ft 0kts
21-Feb-21 10:01 48.795472 -122.534374 129 177ft 0kts
21-Feb-21 10:02 48.795472 -122.534374 129 177ft 0kts
21-Feb-21 10:03 48.795472 -122.534374 129 177ft 0kts
21-Feb-21 10:04 48.795472 -122.534374 129 177ft 0kts
21-Feb-21 10:05 48.795450 -122.534333 130 177ft 0kts
21-Feb-21 10:06 48.795407 -122.534256 130 177ft 1kts
21-Feb-21 10:07 48.794125 -122.535677 307 177ft 9kts
21-Feb-21 10:09 48.797171 -122.536069 358 177ft 11kts
21-Feb-21 10:10 48.800631 -122.536101 359 177ft 10kts
21-Feb-21 10:11 48.801653 -122.536740 272 177ft 0kts
21-Feb-21 10:12 48.790675 -122.537464 179 380ft 123kts
21-Feb-21 10:13 48.751015 -122.551417 187 2567ft 181kts
21-Feb-21 10:14 48.694682 -122.555948 179 4993ft 214kts
21-Feb-21 10:15 48.634318 -122.562273 199 7585ft 223kts
21-Feb-21 10:16 48.572615 -122.586621 201 9996ft 230kts
21-Feb-21 10:17 48.508955 -122.612895 203 11683ft 245kts
21-Feb-21 10:18 48.439858 -122.640961 204 12894ft 264kts
21-Feb-21 10:19 48.364720 -122.673492 204 13030ft 298kts
21-Feb-21 10:20 48.281828 -122.708929 203 12963ft 319kts
21-Feb-21 10:21 48.197193 -122.749504 209 12764ft 317kts
21-Feb-21 10:22 48.116997 -122.796063 207 11602ft 305kts
21-Feb-21 10:23 48.040598 -122.830689 183 10079ft 278kts
21-Feb-21 10:24 47.967273 -122.785374 156 9998ft 291kts
21-Feb-21 10:25 47.903699 -122.712735 118 9901ft 303kts
21-Feb-21 10:26 47.892477 -122.588744 96 9087ft 297kts
21-Feb-21 10:27 47.885464 -122.468416 96 8036ft 284kts
21-Feb-21 10:28 47.876032 -122.353972 121 7051ft 270kts
21-Feb-21 10:29 47.818131 -122.303754 177 6110ft 230kts
21-Feb-21 10:29 47.767605 -122.304703 181 5984ft 205kts
21-Feb-21 10:31 47.699636 -122.305822 181 4961ft 220kts
21-Feb-21 10:31 47.647752 -122.306434 180 3989ft 226kts
21-Feb-21 10:33 47.582477 -122.306603 181 2762ft 163kts
21-Feb-21 10:34 47.543731 -122.306880 182 2020ft 134kts
21-Feb-21 10:34 47.514243 -122.307129 181 1415ft 116kts
21-Feb-21 10:36 47.476310 -122.307316 181 710ft 114kts
21-Feb-21 10:36 47.454748 -122.307816 180 440ft 29kts
21-Feb-21 10:37 47.452063 -122.306758 134 440ft 1kts
21-Feb-21 10:38 47.448546 -122.306281 180 440ft 21kts
21-Feb-21 10:39 47.445097 -122.305624 155 440ft 5kts
21-Feb-21 10:40 47.445399 -122.304594 51 440ft 0kts
21-Feb-21 10:41 47.445399 -122.304593 51 440ft 0kts
21-Feb-21 10:42 47.445399 -122.304593 51 440ft 0kts
21-Feb-21 10:43 47.445399 -122.304593 51 440ft 0kts
21-Feb-21 10:44 47.445399 -122.304593 51 440ft 0kts
21-Feb-21 10:45 47.445399 -122.304593 51 440ft 0kts
21-Feb-21 10:46 47.445399 -122.304593 51 440ft 0kts
21-Feb-21 10:47 47.445399 -122.304593 51 440ft 0kts
21-Feb-21 10:48 47.445399 -122.304593 51 440ft 0kts
21-Feb-21 10:49 47.445399 -122.304593 51 440ft 0kts
21-Feb-21 10:50 47.445399 -122.304593 51 440ft 0kts

Navigation Log

Ident Type
Flight plan parsing failed, navigation log unavailable